My Meet Scores
Kate Zabloudil, Aspire Gymnastics Academy - MyMeetScores.com
Top100 | Top Teams | Upcoming Meets | Completed Meets | Latest | Add Scores | Help| Support | Bookmark and Share

Kate Zabloudil, Aspire Gymnastics Academy
Personal Bests
LevelVault BarsBeamFloorAA
39.6259.650 9.3009.35037.400
49.2009.425 9.2509.15037.025
59.6759.400 8.9509.10036.275
Scores on America's Top 100as of 07.08.2020
Year Level Vault Bars Beam Floor AA
2020 59.675

Click here to view our exclusive Top 100 Collection
Meet Scores
Date Meet Team Session Level Division Vault Bars Beam Floor AA
2020-02-21 Great Western Invitational - Women's Aspire Gymnastics Academy 02 5 Pony 9.150 7T 8.950 7 8.625 9 8.550 10 35.275 8
2020-02-14 Big Classic Aspire Gymnastics Academy 1A 5 Junior B 9.675 6 9.050 33T 7.875 69 8.850 39T 35.450 41T
2020-01-24 Uga Invitational Aspire Gymnastics Academy B1 5 Jr A 9.400 1 8.800 4 8.950 8 8.900 11 36.050 5
2020-01-17 2020 Bravo Classic Aspire Gymnastics Academy 4A 5 Jr 9.425 10T 9.100 8 8.650 16T 9.100 11 36.275 9
2019-12-20 Aspire Classic - 2019 Aspire Gymnastics Academy 3A 5 Middle 9.200 6T 9.400 2T 8.750 16 8.775 13T 36.125 10
2019-12-13 2019 St Nick Aspire Gymnastics Academy 7A 5 SrA 9.200 2T 8.550 7 8.375 11 8.900 5 35.025 7
2019-03-22 Illinois Gymnastics State Championships Aspire Gymnastics Academy 5 4 JR D 9.200 2T 9.425 8T 9.250 12T 9.150 10T 37.025 8
2019-03-08 Lucky Invite Aspire Gymnastics Academy A07 4 Sr 8.200 15T 9.325 5 8.600 15T 8.950 12T 35.075 11
2019-02-23 Kinetic Classic 2019 Aspire Gymnastics Academy 1 4 Middle 8.475 19T 9.300 13T 9.150 14T 9.150 6T 36.075 11T
2019-02-15 Big ClassicBIG CLASSIC Aspire Gymnastics Academy 5A 4 Child C 8.625 8 9.075 8 8.700 11 8.625 8 35.025 7
2019-01-25 UGA Invitational Aspire Gymnastics Academy B06 4 Jr A 8.550 7 9.300 8 9.175 7T 8.900 6T 35.925 5
2019-01-18 2019 Bravo Classic Aspire Gymnastics Academy 3B 4 Jr 8.700 16T 9.025 10 8.550 20 8.825 12T 35.100 16
2018-12-14 2018 Aspire Classic Aspire Gymnastics Academy 5A 4 Older 8.750 12 8.850 12T 9.125 10 9.100 7 35.825 11
2018-12-07 St. Nick Invite 2018 Aspire Gymnastics Academy 5A 4 SrB 8.925 7 9.175 5 8.425 14 8.800 13 35.325 9T
2018-05-03 Illinois USA Gymnastics Level 3 State Championships Aspire Gymnastics Academy 2 3 Jr E 9.625 6T 9.500 4 8.925 17T 9.350 9 37.400 10
2018-01-26 2018 UGA Classic Aspire Gymnastics Academy A8 3 Sr A 8.800 13 9.475 3 9.300 8T 9.350 4T 36.925 7
2018-01-19 2018 Bravo Classic Aspire Gymnastics Academy 7B 3 Sr 9.150 7T 9.375 5T 9.100 8 9.100 7T 36.725 6
2017-12-15 2017 Aspire Classic Aspire Gymnastics Academy 11A 3 Older 9.100 21T 9.525 9T 8.775 17T 9.350 11 36.750 16
2017-12-08 St. Nick Invite Aspire Gymnastics Academy 5A 3 SrA 8.950 12 9.400 1T 9.050 5 8.900 4T 36.300 3
2017-11-16 Paul Hamm Thanksgiving Classic - Women Aspire Gymnastics Academy 5 3 Older 8.800 20 9.650 2T 8.100 19 8.825 12 35.375 16
Get your scores on
a t-shirt, pin, or hoodie

www.lazysuits.com